sensor_id;sensor_type;location;lat;lon;timestamp;pressure;altitude;pressure_sealevel;temperature;humidity
48015;BME280;33780;51.034;7.120;2024-03-08T00:00:05;100927.16;;;5.79;54.05
48015;BME280;33780;51.034;7.120;2024-03-08T00:02:54;100929.06;;;5.76;54.45
48015;BME280;33780;51.034;7.120;2024-03-08T00:05:20;100917.75;;;5.73;54.17
48015;BME280;33780;51.034;7.120;2024-03-08T00:07:45;100926.00;;;5.68;54.13
48015;BME280;33780;51.034;7.120;2024-03-08T00:10:12;100921.94;;;5.63;54.12
48015;BME280;33780;51.034;7.120;2024-03-08T00:12:39;100928.09;;;5.63;54.39
48015;BME280;33780;51.034;7.120;2024-03-08T00:15:11;100922.50;;;5.68;54.25
48015;BME280;33780;51.034;7.120;2024-03-08T00:17:38;100921.00;;;5.64;54.10
48015;BME280;33780;51.034;7.120;2024-03-08T00:20:04;100921.56;;;5.69;54.42
48015;BME280;33780;51.034;7.120;2024-03-08T00:22:36;100909.03;;;5.71;54.35
48015;BME280;33780;51.034;7.120;2024-03-08T00:25:03;100916.25;;;5.69;54.38
48015;BME280;33780;51.034;7.120;2024-03-08T00:27:28;100910.19;;;5.67;53.96
48015;BME280;33780;51.034;7.120;2024-03-08T00:29:55;100917.28;;;5.66;54.18
48015;BME280;33780;51.034;7.120;2024-03-08T00:32:21;100907.91;;;5.61;54.09
48015;BME280;33780;51.034;7.120;2024-03-08T00:34:49;100907.16;;;5.59;54.11
48015;BME280;33780;51.034;7.120;2024-03-08T00:37:17;100902.72;;;5.59;54.38
48015;BME280;33780;51.034;7.120;2024-03-08T00:39:42;100900.91;;;5.60;54.39
48015;BME280;33780;51.034;7.120;2024-03-08T00:42:07;100897.50;;;5.58;54.39
48015;BME280;33780;51.034;7.120;2024-03-08T00:44:33;100886.47;;;5.50;54.84
48015;BME280;33780;51.034;7.120;2024-03-08T00:46:58;100885.91;;;5.44;54.28
48015;BME280;33780;51.034;7.120;2024-03-08T00:49:24;100891.59;;;5.38;55.23
48015;BME280;33780;51.034;7.120;2024-03-08T00:51:50;100891.31;;;5.29;54.94
48015;BME280;33780;51.034;7.120;2024-03-08T00:54:15;100884.22;;;5.29;55.18
48015;BME280;33780;51.034;7.120;2024-03-08T00:56:41;100887.63;;;5.31;55.02
48015;BME280;33780;51.034;7.120;2024-03-08T00:59:07;100881.47;;;5.31;55.32
48015;BME280;33780;51.034;7.120;2024-03-08T01:01:32;100881.75;;;5.26;55.30
48015;BME280;33780;51.034;7.120;2024-03-08T01:03:58;100882.50;;;5.28;55.43
48015;BME280;33780;51.034;7.120;2024-03-08T01:06:23;100884.22;;;5.29;55.37
48015;BME280;33780;51.034;7.120;2024-03-08T01:08:49;100870.75;;;5.32;55.46
48015;BME280;33780;51.034;7.120;2024-03-08T01:11:17;100867.16;;;5.33;55.50
48015;BME280;33780;51.034;7.120;2024-03-08T01:13:42;100867.16;;;5.33;55.03
48015;BME280;33780;51.034;7.120;2024-03-08T01:16:07;100873.69;;;5.28;55.67
48015;BME280;33780;51.034;7.120;2024-03-08T01:18:33;100873.13;;;5.23;55.74
48015;BME280;33780;51.034;7.120;2024-03-08T01:20:58;100857.47;;;5.18;55.73
48015;BME280;33780;51.034;7.120;2024-03-08T01:23:23;100864.00;;;5.12;55.92
48015;BME280;33780;51.034;7.120;2024-03-08T01:25:49;100849.91;;;5.12;55.89
48015;BME280;33780;51.034;7.120;2024-03-08T01:28:22;100856.91;;;5.13;55.94
48015;BME280;33780;51.034;7.120;2024-03-08T01:30:47;100852.84;;;5.07;55.61
48015;BME280;33780;51.034;7.120;2024-03-08T01:33:14;100852.19;;;5.04;56.66
48015;BME280;33780;51.034;7.120;2024-03-08T01:35:39;100850.16;;;4.93;56.38
48015;BME280;33780;51.034;7.120;2024-03-08T01:38:06;100842.31;;;4.92;56.44
48015;BME280;33780;51.034;7.120;2024-03-08T01:40:32;100838.69;;;4.93;56.77
48015;BME280;33780;51.034;7.120;2024-03-08T01:42:57;100837.94;;;4.91;56.43
48015;BME280;33780;51.034;7.120;2024-03-08T01:45:22;100837.75;;;4.94;56.82
48015;BME280;33780;51.034;7.120;2024-03-08T01:47:47;100828.00;;;4.94;56.62
48015;BME280;33780;51.034;7.120;2024-03-08T01:50:13;100829.81;;;4.94;56.60
48015;BME280;33780;51.034;7.120;2024-03-08T01:52:41;100827.63;;;4.86;56.32
48015;BME280;33780;51.034;7.120;2024-03-08T01:55:07;100826.84;;;4.84;56.96
48015;BME280;33780;51.034;7.120;2024-03-08T01:57:33;100825.13;;;4.83;56.92
48015;BME280;33780;51.034;7.120;2024-03-08T02:00:00;100813.69;;;4.82;57.08
48015;BME280;33780;51.034;7.120;2024-03-08T02:02:31;100806.31;;;4.88;57.03
48015;BME280;33780;51.034;7.120;2024-03-08T02:04:57;100811.53;;;4.89;57.40
48015;BME280;33780;51.034;7.120;2024-03-08T02:07:22;100808.88;;;4.89;57.25
48015;BME280;33780;51.034;7.120;2024-03-08T02:09:48;100798.28;;;4.89;56.86
48015;BME280;33780;51.034;7.120;2024-03-08T02:12:13;100802.53;;;4.92;57.23
48015;BME280;33780;51.034;7.120;2024-03-08T02:14:38;100797.22;;;4.92;56.87
48015;BME280;33780;51.034;7.120;2024-03-08T02:17:05;100796.47;;;4.90;56.90
48015;BME280;33780;51.034;7.120;2024-03-08T02:19:30;100792.22;;;4.87;57.22
48015;BME280;33780;51.034;7.120;2024-03-08T02:21:56;100792.13;;;4.89;56.65
48015;BME280;33780;51.034;7.120;2024-03-08T02:24:21;100790.22;;;4.91;56.91
48015;BME280;33780;51.034;7.120;2024-03-08T02:26:48;100788.50;;;4.90;57.07
48015;BME280;33780;51.034;7.120;2024-03-08T02:29:14;100783.31;;;4.88;56.73
48015;BME280;33780;51.034;7.120;2024-03-08T02:31:39;100786.16;;;4.85;56.86
48015;BME280;33780;51.034;7.120;2024-03-08T02:34:05;100778.25;;;4.83;57.04
48015;BME280;33780;51.034;7.120;2024-03-08T02:36:30;100780.16;;;4.81;57.03
48015;BME280;33780;51.034;7.120;2024-03-08T02:39:00;100782.06;;;4.79;56.85
48015;BME280;33780;51.034;7.120;2024-03-08T02:41:26;100773.25;;;4.79;56.86
48015;BME280;33780;51.034;7.120;2024-03-08T02:43:51;100777.50;;;4.81;56.86
48015;BME280;33780;51.034;7.120;2024-03-08T02:46:16;100776.56;;;4.82;56.71
48015;BME280;33780;51.034;7.120;2024-03-08T02:48:42;100779.06;;;4.85;56.31
48015;BME280;33780;51.034;7.120;2024-03-08T02:51:07;100766.91;;;4.81;56.46
48015;BME280;33780;51.034;7.120;2024-03-08T02:53:32;100778.75;;;4.76;56.70
48015;BME280;33780;51.034;7.120;2024-03-08T02:55:57;100777.31;;;4.70;57.16
48015;BME280;33780;51.034;7.120;2024-03-08T02:58:23;100776.38;;;4.71;56.80
48015;BME280;33780;51.034;7.120;2024-03-08T03:00:48;100763.03;;;4.73;56.53
48015;BME280;33780;51.034;7.120;2024-03-08T03:03:13;100755.19;;;4.71;57.33
48015;BME280;33780;51.034;7.120;2024-03-08T03:05:39;100763.88;;;4.73;57.22
48015;BME280;33780;51.034;7.120;2024-03-08T03:08:06;100763.31;;;4.68;56.76
48015;BME280;33780;51.034;7.120;2024-03-08T03:10:34;100754.50;;;4.68;57.01
48015;BME280;33780;51.034;7.120;2024-03-08T03:12:59;100760.72;;;4.67;56.85
48015;BME280;33780;51.034;7.120;2024-03-08T03:15:24;100751.16;;;4.64;56.78
48015;BME280;33780;51.034;7.120;2024-03-08T03:17:50;100746.63;;;4.66;57.02
48015;BME280;33780;51.034;7.120;2024-03-08T03:20:17;100749.47;;;4.63;57.16
48015;BME280;33780;51.034;7.120;2024-03-08T03:22:51;100739.72;;;4.64;57.02
48015;BME280;33780;51.034;7.120;2024-03-08T03:25:21;100748.44;;;4.66;56.76
48015;BME280;33780;51.034;7.120;2024-03-08T03:27:51;100740.75;;;4.61;56.96
48015;BME280;33780;51.034;7.120;2024-03-08T03:30:16;100740.75;;;4.61;57.17
48015;BME280;33780;51.034;7.120;2024-03-08T03:32:47;100739.06;;;4.60;56.99
48015;BME280;33780;51.034;7.120;2024-03-08T03:35:13;100738.13;;;4.61;56.90
48015;BME280;33780;51.034;7.120;2024-03-08T03:37:40;100740.28;;;4.54;56.92
48015;BME280;33780;51.034;7.120;2024-03-08T03:40:08;100733.28;;;4.53;57.05
48015;BME280;33780;51.034;7.120;2024-03-08T03:42:34;100749.09;;;4.55;57.13
48015;BME280;33780;51.034;7.120;2024-03-08T03:44:59;100737.16;;;4.48;57.92
48015;BME280;33780;51.034;7.120;2024-03-08T03:47:24;100742.28;;;4.51;56.98
48015;BME280;33780;51.034;7.120;2024-03-08T03:49:51;100739.44;;;4.54;57.04
48015;BME280;33780;51.034;7.120;2024-03-08T03:52:18;100739.25;;;4.57;57.19
48015;BME280;33780;51.034;7.120;2024-03-08T03:54:44;100739.06;;;4.60;57.29
48015;BME280;33780;51.034;7.120;2024-03-08T03:57:09;100741.50;;;4.63;57.02
48015;BME280;33780;51.034;7.120;2024-03-08T03:59:34;100737.91;;;4.64;57.34
48015;BME280;33780;51.034;7.120;2024-03-08T04:01:59;100741.41;;;4.65;57.34
48015;BME280;33780;51.034;7.120;2024-03-08T04:04:25;100736.97;;;4.65;57.28
48015;BME280;33780;51.034;7.120;2024-03-08T04:06:50;100729.03;;;4.65;57.28
48015;BME280;33780;51.034;7.120;2024-03-08T04:09:16;100728.47;;;4.60;57.00
48015;BME280;33780;51.034;7.120;2024-03-08T04:11:44;100731.41;;;4.55;57.40
48015;BME280;33780;51.034;7.120;2024-03-08T04:14:09;100727.13;;;4.53;57.25
48015;BME280;33780;51.034;7.120;2024-03-08T04:16:35;100732.69;;;4.48;57.72
48015;BME280;33780;51.034;7.120;2024-03-08T04:19:01;100730.03;;;4.48;57.90
48015;BME280;33780;51.034;7.120;2024-03-08T04:21:30;100732.50;;;4.37;57.75
48015;BME280;33780;51.034;7.120;2024-03-08T04:23:55;100739.69;;;4.35;57.66
48015;BME280;33780;51.034;7.120;2024-03-08T04:26:21;100729.94;;;4.36;57.52
48015;BME280;33780;51.034;7.120;2024-03-08T04:28:46;100732.41;;;4.39;58.14
48015;BME280;33780;51.034;7.120;2024-03-08T04:31:12;100727.78;;;4.42;57.33
48015;BME280;33780;51.034;7.120;2024-03-08T04:33:37;100732.03;;;4.45;57.43
48015;BME280;33780;51.034;7.120;2024-03-08T04:36:04;100727.78;;;4.42;57.55
48015;BME280;33780;51.034;7.120;2024-03-08T04:38:30;100726.06;;;4.41;57.98
48015;BME280;33780;51.034;7.120;2024-03-08T04:40:56;100722.28;;;4.45;57.78
48015;BME280;33780;51.034;7.120;2024-03-08T04:43:22;100718.59;;;4.48;58.29
48015;BME280;33780;51.034;7.120;2024-03-08T04:45:50;100717.75;;;4.47;57.75
48015;BME280;33780;51.034;7.120;2024-03-08T04:48:15;100713.22;;;4.49;57.78
48015;BME280;33780;51.034;7.120;2024-03-08T04:50:41;100713.22;;;4.49;57.68
48015;BME280;33780;51.034;7.120;2024-03-08T04:53:06;100712.38;;;4.49;57.65
48015;BME280;33780;51.034;7.120;2024-03-08T04:55:33;100698.34;;;4.47;57.41
48015;BME280;33780;51.034;7.120;2024-03-08T04:57:59;100703.75;;;4.45;58.08
48015;BME280;33780;51.034;7.120;2024-03-08T05:00:24;100700.25;;;4.45;58.07
48015;BME280;33780;51.034;7.120;2024-03-08T05:02:50;100697.50;;;4.46;58.35
48015;BME280;33780;51.034;7.120;2024-03-08T05:05:18;100705.53;;;4.45;57.92
48015;BME280;33780;51.034;7.120;2024-03-08T05:07:43;100696.75;;;4.44;57.75
48015;BME280;33780;51.034;7.120;2024-03-08T05:10:10;100692.56;;;4.40;58.26
48015;BME280;33780;51.034;7.120;2024-03-08T05:12:36;100692.28;;;4.31;58.26
48015;BME280;33780;51.034;7.120;2024-03-08T05:15:04;100701.25;;;4.28;58.37
48015;BME280;33780;51.034;7.120;2024-03-08T05:17:30;100691.78;;;4.24;58.59
48015;BME280;33780;51.034;7.120;2024-03-08T05:19:55;100687.72;;;4.18;58.59
48015;BME280;33780;51.034;7.120;2024-03-08T05:22:21;100685.06;;;4.18;58.71
48015;BME280;33780;51.034;7.120;2024-03-08T05:24:46;100686.78;;;4.19;58.70
48015;BME280;33780;51.034;7.120;2024-03-08T05:27:11;100685.16;;;4.17;58.79
48015;BME280;33780;51.034;7.120;2024-03-08T05:29:38;100687.91;;;4.15;59.04
48015;BME280;33780;51.034;7.120;2024-03-08T05:32:03;100686.97;;;4.16;59.29
48015;BME280;33780;51.034;7.120;2024-03-08T05:34:29;100683.38;;;4.17;59.28
48015;BME280;33780;51.034;7.120;2024-03-08T05:36:55;100686.03;;;4.17;58.64
48015;BME280;33780;51.034;7.120;2024-03-08T05:39:20;100679.78;;;4.18;59.19
48015;BME280;33780;51.034;7.120;2024-03-08T05:41:46;100677.88;;;4.20;59.23
48015;BME280;33780;51.034;7.120;2024-03-08T05:44:12;100673.34;;;4.22;59.20
48015;BME280;33780;51.034;7.120;2024-03-08T05:46:38;100677.13;;;4.18;58.88
48015;BME280;33780;51.034;7.120;2024-03-08T05:49:04;100666.88;;;4.12;58.93
48015;BME280;33780;51.034;7.120;2024-03-08T05:51:34;100669.53;;;4.12;59.54
48015;BME280;33780;51.034;7.120;2024-03-08T05:54:04;100662.38;;;4.14;59.12
48015;BME280;33780;51.034;7.120;2024-03-08T05:56:31;100664.94;;;4.16;59.19
48015;BME280;33780;51.034;7.120;2024-03-08T05:58:56;100662.38;;;4.14;59.39
48015;BME280;33780;51.034;7.120;2024-03-08T06:01:23;100665.88;;;4.15;59.17
48015;BME280;33780;51.034;7.120;2024-03-08T06:03:49;100659.78;;;4.13;59.43
48015;BME280;33780;51.034;7.120;2024-03-08T06:06:14;100655.44;;;4.12;59.78
48015;BME280;33780;51.034;7.120;2024-03-08T06:08:41;100663.56;;;4.09;59.21
48015;BME280;33780;51.034;7.120;2024-03-08T06:11:08;100658.19;;;4.10;59.64
48015;BME280;33780;51.034;7.120;2024-03-08T06:13:34;100658.88;;;4.14;59.91
48015;BME280;33780;51.034;7.120;2024-03-08T06:16:00;100655.19;;;4.16;59.37
48015;BME280;33780;51.034;7.120;2024-03-08T06:18:30;100659.53;;;4.17;60.01
48015;BME280;33780;51.034;7.120;2024-03-08T06:20:55;100655.38;;;4.13;60.05
48015;BME280;33780;51.034;7.120;2024-03-08T06:23:21;100650.09;;;4.13;59.94
48015;BME280;33780;51.034;7.120;2024-03-08T06:25:47;100656.13;;;4.15;60.02
48015;BME280;33780;51.034;7.120;2024-03-08T06:28:12;100655.19;;;4.16;60.31
48015;BME280;33780;51.034;7.120;2024-03-08T06:30:39;100650.94;;;4.14;59.83
48015;BME280;33780;51.034;7.120;2024-03-08T06:33:04;100648.34;;;4.12;60.02
48015;BME280;33780;51.034;7.120;2024-03-08T06:35:30;100641.53;;;4.08;60.30
48015;BME280;33780;51.034;7.120;2024-03-08T06:37:57;100649.38;;;4.10;59.94
48015;BME280;33780;51.034;7.120;2024-03-08T06:40:23;100641.34;;;4.11;60.61
48015;BME280;33780;51.034;7.120;2024-03-08T06:42:48;100637.69;;;4.14;60.27
48015;BME280;33780;51.034;7.120;2024-03-08T06:45:13;100638.53;;;4.14;60.38
48015;BME280;33780;51.034;7.120;2024-03-08T06:47:44;100639.31;;;4.16;60.40
48015;BME280;33780;51.034;7.120;2024-03-08T06:50:11;100637.41;;;4.18;60.40
48015;BME280;33780;51.034;7.120;2024-03-08T06:52:36;100640.25;;;4.15;60.36
48015;BME280;33780;51.034;7.120;2024-03-08T06:55:02;100638.34;;;4.17;60.60
48015;BME280;33780;51.034;7.120;2024-03-08T06:57:30;100644.22;;;4.22;60.53
48015;BME280;33780;51.034;7.120;2024-03-08T06:59:56;100637.69;;;4.28;60.70
48015;BME280;33780;51.034;7.120;2024-03-08T07:02:22;100633.94;;;4.32;60.52
48015;BME280;33780;51.034;7.120;2024-03-08T07:04:50;100636.38;;;4.35;60.37
48015;BME280;33780;51.034;7.120;2024-03-08T07:07:15;100637.03;;;4.39;60.42
48015;BME280;33780;51.034;7.120;2024-03-08T07:09:41;100641.19;;;4.43;60.18
48015;BME280;33780;51.034;7.120;2024-03-08T07:12:07;100646.31;;;4.46;59.96
48015;BME280;33780;51.034;7.120;2024-03-08T07:14:33;100639.28;;;4.45;60.50
48015;BME280;33780;51.034;7.120;2024-03-08T07:16:58;100636.00;;;4.41;59.90
48015;BME280;33780;51.034;7.120;2024-03-08T07:19:23;100638.75;;;4.40;60.16
48015;BME280;33780;51.034;7.120;2024-03-08T07:21:49;100637.78;;;4.41;60.08
48015;BME280;33780;51.034;7.120;2024-03-08T07:24:14;100638.53;;;4.43;60.49
48015;BME280;33780;51.034;7.120;2024-03-08T07:26:43;100638.19;;;4.49;60.51
48015;BME280;33780;51.034;7.120;2024-03-08T07:29:09;100631.94;;;4.50;60.23
48015;BME280;33780;51.034;7.120;2024-03-08T07:31:34;100635.44;;;4.50;60.47
48015;BME280;33780;51.034;7.120;2024-03-08T07:34:02;100624.53;;;4.55;60.28
48015;BME280;33780;51.034;7.120;2024-03-08T07:36:28;100619.91;;;4.59;60.23
48015;BME280;33780;51.034;7.120;2024-03-08T07:38:54;100616.09;;;4.63;60.63
48015;BME280;33780;51.034;7.120;2024-03-08T07:41:19;100616.75;;;4.66;60.51
48015;BME280;33780;51.034;7.120;2024-03-08T07:43:45;100619.34;;;4.68;60.17
48015;BME280;33780;51.034;7.120;2024-03-08T07:46:10;100612.78;;;4.73;60.58
48015;BME280;33780;51.034;7.120;2024-03-08T07:48:36;100612.50;;;4.78;60.46
48015;BME280;33780;51.034;7.120;2024-03-08T07:51:02;100606.88;;;4.82;60.03
48015;BME280;33780;51.034;7.120;2024-03-08T07:53:28;100610.28;;;4.84;60.37
48015;BME280;33780;51.034;7.120;2024-03-08T07:55:53;100603.75;;;4.90;60.19
48015;BME280;33780;51.034;7.120;2024-03-08T07:58:19;100611.63;;;4.92;59.84
48015;BME280;33780;51.034;7.120;2024-03-08T08:00:44;100605.06;;;4.97;59.84
48015;BME280;33780;51.034;7.120;2024-03-08T08:03:09;100592.34;;;5.02;59.44
48015;BME280;33780;51.034;7.120;2024-03-08T08:05:34;100604.69;;;5.03;59.68
48015;BME280;33780;51.034;7.120;2024-03-08T08:08:05;100591.41;;;5.03;59.34
48015;BME280;33780;51.034;7.120;2024-03-08T08:10:32;100581.34;;;5.08;59.46
48015;BME280;33780;51.034;7.120;2024-03-08T08:12:58;100585.72;;;5.09;59.90
48015;BME280;33780;51.034;7.120;2024-03-08T08:15:23;100585.91;;;5.06;59.76
48015;BME280;33780;51.034;7.120;2024-03-08T08:17:48;100575.84;;;5.11;59.50
48015;BME280;33780;51.034;7.120;2024-03-08T08:20:14;100572.88;;;5.16;59.92
48015;BME280;33780;51.034;7.120;2024-03-08T08:22:40;100569.00;;;5.22;59.62
48015;BME280;33780;51.034;7.120;2024-03-08T08:25:09;100573.78;;;5.29;60.07
48015;BME280;33780;51.034;7.120;2024-03-08T08:27:38;100562.97;;;5.32;59.33
48015;BME280;33780;51.034;7.120;2024-03-08T08:30:05;100560.94;;;5.36;59.18
48015;BME280;33780;51.034;7.120;2024-03-08T08:32:36;100550.91;;;5.41;59.66
48015;BME280;33780;51.034;7.120;2024-03-08T08:35:04;100546.44;;;5.41;59.16
48015;BME280;33780;51.034;7.120;2024-03-08T08:37:31;100549.19;;;5.40;59.46
48015;BME280;33780;51.034;7.120;2024-03-08T08:39:57;100539.53;;;5.39;59.31
48015;BME280;33780;51.034;7.120;2024-03-08T08:42:23;100541.78;;;5.45;59.95
48015;BME280;33780;51.034;7.120;2024-03-08T08:44:48;100537.94;;;5.49;59.25
48015;BME280;33780;51.034;7.120;2024-03-08T08:47:16;100537.75;;;5.52;58.77
48015;BME280;33780;51.034;7.120;2024-03-08T08:49:44;100518.88;;;5.57;59.08
48015;BME280;33780;51.034;7.120;2024-03-08T08:52:11;100525.56;;;5.62;59.25
48015;BME280;33780;51.034;7.120;2024-03-08T08:54:36;100518.75;;;5.71;59.12
48015;BME280;33780;51.034;7.120;2024-03-08T08:57:01;100519.19;;;5.78;58.80
48015;BME280;33780;51.034;7.120;2024-03-08T08:59:32;100518.75;;;5.84;58.85
48015;BME280;33780;51.034;7.120;2024-03-08T09:01:58;100511.31;;;5.89;59.21
48015;BME280;33780;51.034;7.120;2024-03-08T09:04:23;100517.22;;;5.94;59.48
48015;BME280;33780;51.034;7.120;2024-03-08T09:06:49;100505.19;;;6.01;58.81
48015;BME280;33780;51.034;7.120;2024-03-08T09:09:14;100504.00;;;6.05;58.97
48015;BME280;33780;51.034;7.120;2024-03-08T09:11:41;100508.91;;;6.11;59.14
48015;BME280;33780;51.034;7.120;2024-03-08T09:14:07;100506.66;;;6.18;58.69
48015;BME280;33780;51.034;7.120;2024-03-08T09:16:34;100488.78;;;6.20;58.30
48015;BME280;33780;51.034;7.120;2024-03-08T09:18:59;100492.81;;;6.25;58.17
48015;BME280;33780;51.034;7.120;2024-03-08T09:21:25;100500.38;;;6.31;58.50
48015;BME280;33780;51.034;7.120;2024-03-08T09:23:52;100500.88;;;6.36;57.65
48015;BME280;33780;51.034;7.120;2024-03-08T09:26:18;100496.91;;;6.42;58.37
48015;BME280;33780;51.034;7.120;2024-03-08T09:28:43;100494.03;;;6.45;57.48
48015;BME280;33780;51.034;7.120;2024-03-08T09:31:09;100489.25;;;6.50;57.61
48015;BME280;33780;51.034;7.120;2024-03-08T09:33:36;100488.91;;;6.55;57.46
48015;BME280;33780;51.034;7.120;2024-03-08T09:36:02;100488.78;;;6.56;57.23
48015;BME280;33780;51.034;7.120;2024-03-08T09:38:29;100486.75;;;6.60;57.21
48015;BME280;33780;51.034;7.120;2024-03-08T09:40:54;100492.69;;;6.63;57.05
48015;BME280;33780;51.034;7.120;2024-03-08T09:43:22;100479.81;;;6.70;57.30
48015;BME280;33780;51.034;7.120;2024-03-08T09:45:49;100470.41;;;6.77;57.71
48015;BME280;33780;51.034;7.120;2024-03-08T09:48:17;100463.91;;;6.81;57.35
48015;BME280;33780;51.034;7.120;2024-03-08T09:50:44;100465.38;;;6.85;57.37
48015;BME280;33780;51.034;7.120;2024-03-08T09:53:11;100450.16;;;6.87;56.14
48015;BME280;33780;51.034;7.120;2024-03-08T09:55:37;100449.56;;;6.95;56.78
48015;BME280;33780;51.034;7.120;2024-03-08T09:58:06;100444.13;;;6.96;56.51
48015;BME280;33780;51.034;7.120;2024-03-08T10:01:01;100447.19;;;7.03;56.15
48015;BME280;33780;51.034;7.120;2024-03-08T10:03:28;100431.72;;;7.08;55.65
48015;BME280;33780;51.034;7.120;2024-03-08T10:05:53;100434.88;;;7.13;55.88
48015;BME280;33780;51.034;7.120;2024-03-08T10:08:21;100439.00;;;7.17;55.79
48015;BME280;33780;51.034;7.120;2024-03-08T10:10:47;100443.88;;;7.23;55.63
48015;BME280;33780;51.034;7.120;2024-03-08T10:13:13;100432.75;;;7.30;55.41
48015;BME280;33780;51.034;7.120;2024-03-08T10:15:39;100437.59;;;7.36;55.48
48015;BME280;33780;51.034;7.120;2024-03-08T10:18:05;100423.09;;;7.40;55.13
48015;BME280;33780;51.034;7.120;2024-03-08T10:20:31;100420.69;;;7.37;53.55
48015;BME280;33780;51.034;7.120;2024-03-08T10:23:00;100418.97;;;7.47;55.16
48015;BME280;33780;51.034;7.120;2024-03-08T10:25:26;100422.75;;;7.55;54.69
48015;BME280;33780;51.034;7.120;2024-03-08T10:27:51;100421.78;;;7.56;54.38
48015;BME280;33780;51.034;7.120;2024-03-08T10:30:17;100413.19;;;7.64;54.86
48015;BME280;33780;51.034;7.120;2024-03-08T10:32:47;100403.97;;;7.68;54.46
48015;BME280;33780;51.034;7.120;2024-03-08T10:35:12;100403.63;;;7.73;54.84
48015;BME280;33780;51.034;7.120;2024-03-08T10:37:49;100396.72;;;7.81;54.69
48015;BME280;33780;51.034;7.120;2024-03-08T10:40:23;100391.03;;;7.86;54.05
48015;BME280;33780;51.034;7.120;2024-03-08T10:42:54;100390.91;;;7.87;52.66
48015;BME280;33780;51.034;7.120;2024-03-08T10:45:39;100379.63;;;7.95;53.84
48015;BME280;33780;51.034;7.120;2024-03-08T10:50:53;100379.38;;;7.98;51.29
48015;BME280;33780;51.034;7.120;2024-03-08T10:53:19;100372.56;;;8.05;52.47
48015;BME280;33780;51.034;7.120;2024-03-08T10:55:47;100365.09;;;8.10;53.06
48015;BME280;33780;51.034;7.120;2024-03-08T10:58:15;100362.88;;;8.15;52.87
48015;BME280;33780;51.034;7.120;2024-03-08T11:00:42;100362.38;;;8.22;53.67
48015;BME280;33780;51.034;7.120;2024-03-08T11:03:07;100359.94;;;8.30;52.77
48015;BME280;33780;51.034;7.120;2024-03-08T11:05:54;100358.34;;;8.38;53.24
48015;BME280;33780;51.034;7.120;2024-03-08T11:08:20;100351.78;;;8.42;51.82
48015;BME280;33780;51.034;7.120;2024-03-08T11:10:54;100350.44;;;8.48;52.49
48015;BME280;33780;51.034;7.120;2024-03-08T11:13:42;100347.25;;;8.54;52.22
48015;BME280;33780;51.034;7.120;2024-03-08T11:19:06;100346.25;;;8.66;50.80
48015;BME280;33780;51.034;7.120;2024-03-08T11:21:35;100344.63;;;8.75;52.29
48015;BME280;33780;51.034;7.120;2024-03-08T11:24:13;100329.19;;;8.78;50.79
48015;BME280;33780;51.034;7.120;2024-03-08T11:26:39;100329.53;;;8.85;51.30
48015;BME280;33780;51.034;7.120;2024-03-08T11:34:32;100311.75;;;8.95;49.97
48015;BME280;33780;51.034;7.120;2024-03-08T11:36:58;100313.69;;;8.93;49.74
48015;BME280;33780;51.034;7.120;2024-03-08T11:39:24;100311.38;;;9.00;50.37
48015;BME280;33780;51.034;7.120;2024-03-08T11:41:49;100295.09;;;9.03;50.53
48015;BME280;33780;51.034;7.120;2024-03-08T11:44:15;100287.53;;;9.08;49.97
48015;BME280;33780;51.034;7.120;2024-03-08T11:46:42;100289.78;;;9.13;50.82
48015;BME280;33780;51.034;7.120;2024-03-08T11:49:12;100295.72;;;9.16;50.39
48015;BME280;33780;51.034;7.120;2024-03-08T11:51:38;100296.31;;;9.20;48.34
48015;BME280;33780;51.034;7.120;2024-03-08T11:54:03;100286.91;;;9.25;48.39
48015;BME280;33780;51.034;7.120;2024-03-08T11:56:29;100282.28;;;9.27;48.65
48015;BME280;33780;51.034;7.120;2024-03-08T11:58:55;100276.78;;;9.29;48.27
48015;BME280;33780;51.034;7.120;2024-03-08T12:01:24;100281.63;;;9.35;48.77
48015;BME280;33780;51.034;7.120;2024-03-08T12:03:53;100271.50;;;9.38;48.67
48015;BME280;33780;51.034;7.120;2024-03-08T12:06:19;100261.41;;;9.42;48.41
48015;BME280;33780;51.034;7.120;2024-03-08T12:08:48;100261.97;;;9.46;49.62
48015;BME280;33780;51.034;7.120;2024-03-08T12:11:14;100265.06;;;9.51;49.74
48015;BME280;33780;51.034;7.120;2024-03-08T12:13:41;100260.03;;;9.57;48.86
48015;BME280;33780;51.034;7.120;2024-03-08T12:16:06;100257.78;;;9.62;48.35
48015;BME280;33780;51.034;7.120;2024-03-08T12:18:34;100241.19;;;9.68;48.71
48015;BME280;33780;51.034;7.120;2024-03-08T12:21:09;100244.34;;;9.74;49.01
48015;BME280;33780;51.034;7.120;2024-03-08T12:23:39;100233.06;;;9.80;48.39
48015;BME280;33780;51.034;7.120;2024-03-08T12:26:16;100238.00;;;9.84;49.18
48015;BME280;33780;51.034;7.120;2024-03-08T12:28:42;100234.19;;;9.87;47.83
48015;BME280;33780;51.034;7.120;2024-03-08T12:34:40;100230.28;;;10.00;48.04
48015;BME280;33780;51.034;7.120;2024-03-08T12:37:05;100207.75;;;10.03;48.59
48015;BME280;33780;51.034;7.120;2024-03-08T12:39:32;100217.22;;;10.07;47.95
48015;BME280;33780;51.034;7.120;2024-03-08T12:41:58;100210.59;;;10.11;47.92
48015;BME280;33780;51.034;7.120;2024-03-08T12:44:24;100212.28;;;10.12;46.48
48015;BME280;33780;51.034;7.120;2024-03-08T12:46:51;100208.88;;;10.20;47.55
48015;BME280;33780;51.034;7.120;2024-03-08T12:49:19;100200.19;;;10.27;47.47
48015;BME280;33780;51.034;7.120;2024-03-08T12:51:47;100208.06;;;10.29;46.04
48015;BME280;33780;51.034;7.120;2024-03-08T12:54:12;100209.75;;;10.30;45.92
48015;BME280;33780;51.034;7.120;2024-03-08T12:56:38;100185.16;;;10.26;45.20
48015;BME280;33780;51.034;7.120;2024-03-08T12:59:05;100187.25;;;10.33;46.13
48015;BME280;33780;51.034;7.120;2024-03-08T13:01:31;100187.09;;;10.34;46.32
48015;BME280;33780;51.034;7.120;2024-03-08T13:03:58;100179.22;;;10.42;46.80
48015;BME280;33780;51.034;7.120;2024-03-08T13:06:28;100181.59;;;10.45;46.35
48015;BME280;33780;51.034;7.120;2024-03-08T13:08:54;100174.25;;;10.47;46.00
48015;BME280;33780;51.034;7.120;2024-03-08T13:11:21;100177.03;;;10.55;46.92